Time;durP1;ratioP1;P1;durP2;ratioP2;P2;SDS_P1;SDS_P2;PMS_P1;PMS_P2;Temp;Humidity;BMP_temperature;BMP_pressure;BME280_temperature;BME280_humidity;BME280_pressure;Samples;Min_cycle;Max_cycle;Signal;HPM_P1;HPM_P2
2021/03/17 00:01:01;;;;;;;1.90;1.60;;;20.20;24.00;;;;;;5114472;28;20188;-58
2021/03/17 00:03:27;;;;;;;1.35;1.25;;;20.20;23.40;;;;;;5096995;28;20149;-57
2021/03/17 00:05:53;;;;;;;1.30;1.00;;;20.20;23.40;;;;;;5114073;28;20197;-58
2021/03/17 00:08:20;;;;;;;1.60;1.25;;;20.20;23.50;;;;;;5114978;28;20169;-58
2021/03/17 00:10:52;;;;;;;1.20;1.10;;;20.20;23.50;;;;;;5114508;28;20153;-57
2021/03/17 00:13:26;;;;;;;1.10;0.95;;;20.10;23.40;;;;;;5114656;28;20232;-58
2021/03/17 00:15:54;;;;;;;1.95;1.35;;;20.20;23.50;;;;;;5114083;28;20511;-57
2021/03/17 00:18:20;;;;;;;1.50;1.02;;;20.20;23.50;;;;;;5114482;28;20153;-57
2021/03/17 00:20:46;;;;;;;3.57;1.73;;;20.20;23.40;;;;;;5114735;28;20202;-58
2021/03/17 00:23:12;;;;;;;1.23;1.13;;;20.20;23.40;;;;;;5114176;28;20216;-58
2021/03/17 00:25:39;;;;;;;1.63;1.20;;;20.20;23.40;;;;;;5114239;28;20695;-57
2021/03/17 00:28:05;;;;;;;1.42;1.33;;;20.20;23.30;;;;;;5114431;28;20173;-57
2021/03/17 00:30:33;;;;;;;1.90;1.33;;;20.20;23.30;;;;;;5113873;28;20153;-57
2021/03/17 00:33:00;;;;;;;1.40;1.30;;;20.20;23.30;;;;;;5114839;28;20157;-57
2021/03/17 00:35:26;;;;;;;1.65;1.50;;;20.20;23.40;;;;;;5114366;28;20149;-57
2021/03/17 00:37:52;;;;;;;1.20;1.10;;;20.20;23.40;;;;;;5114234;28;20157;-57
2021/03/17 00:40:18;;;;;;;1.40;1.20;;;20.20;23.40;;;;;;5114269;28;20162;-58
2021/03/17 00:42:59;;;;;;;2.40;1.60;;;20.10;23.90;;;;;;5114168;28;20168;-57
2021/03/17 00:45:26;;;;;;;2.05;1.42;;;20.20;23.40;;;;;;5113723;28;20189;-58
2021/03/17 00:47:52;;;;;;;3.30;1.20;;;20.20;23.40;;;;;;5113969;28;20179;-58
2021/03/17 00:50:19;;;;;;;2.07;1.20;;;20.20;23.30;;;;;;5114045;28;20161;-58
2021/03/17 00:52:45;;;;;;;1.10;1.00;;;20.20;23.30;;;;;;5114236;28;20916;-58
2021/03/17 00:55:12;;;;;;;2.07;1.33;;;20.20;23.30;;;;;;5095606;28;20169;-57
2021/03/17 00:57:39;;;;;;;1.50;1.40;;;20.20;23.30;;;;;;5114110;28;20377;-58
2021/03/17 01:00:06;;;;;;;1.95;1.00;;;20.20;23.30;;;;;;5113379;28;20161;-57
2021/03/17 01:02:32;;;;;;;1.13;0.90;;;20.20;23.30;;;;;;5095902;28;20196;-57
2021/03/17 01:05:35;;;;;;;2.13;1.50;;;20.20;23.30;;;;;;5113817;28;20640;-58
2021/03/17 01:08:00;;;;;;;1.42;1.20;;;20.20;23.30;;;;;;5114084;28;20165;-58
2021/03/17 01:10:34;;;;;;;3.13;1.50;;;20.10;23.30;;;;;;5113828;28;20171;-57
2021/03/17 01:13:00;;;;;;;1.13;1.02;;;20.20;23.30;;;;;;5113942;28;20141;-58
2021/03/17 01:15:26;;;;;;;1.50;1.40;;;20.20;23.30;;;;;;5113330;28;20161;-58
2021/03/17 01:17:52;;;;;;;1.17;1.07;;;20.20;23.30;;;;;;5116755;28;20157;-57
2021/03/17 01:20:19;;;;;;;1.80;1.50;;;20.20;23.30;;;;;;5117981;28;20417;-57
2021/03/17 01:22:45;;;;;;;1.90;1.67;;;20.30;23.30;;;;;;5117983;28;20228;-57
2021/03/17 01:25:14;;;;;;;1.43;1.20;;;20.20;23.20;;;;;;5117779;28;20189;-57
2021/03/17 01:27:42;;;;;;;1.60;1.10;;;20.20;23.20;;;;;;5118289;28;20419;-57
2021/03/17 01:30:09;;;;;;;1.27;1.05;;;20.20;23.20;;;;;;5117303;28;20150;-58
2021/03/17 01:32:35;;;;;;;1.40;1.00;;;20.20;23.30;;;;;;5117952;28;20160;-58
2021/03/17 01:35:01;;;;;;;0.90;0.90;;;20.20;23.30;;;;;;5117629;28;20164;-58
2021/03/17 01:37:29;;;;;;;1.20;1.10;;;20.10;23.20;;;;;;5117553;28;20184;-58
2021/03/17 01:39:55;;;;;;;1.00;0.90;;;20.20;23.30;;;;;;5117504;28;20157;-57
2021/03/17 01:42:23;;;;;;;1.27;1.17;;;20.20;23.30;;;;;;5117812;28;20636;-57
2021/03/17 01:44:52;;;;;;;1.95;1.40;;;20.20;23.30;;;;;;5117088;28;20184;-57
2021/03/17 01:47:17;;;;;;;1.90;1.48;;;20.20;23.30;;;;;;5117384;28;20154;-57
2021/03/17 01:49:43;;;;;;;1.90;1.63;;;20.20;23.20;;;;;;5117470;28;20589;-57
2021/03/17 01:52:11;;;;;;;2.13;1.30;;;20.20;23.20;;;;;;5117784;28;20164;-57
2021/03/17 01:54:37;;;;;;;1.55;1.17;;;20.20;23.20;;;;;;5117598;28;20232;-57
2021/03/17 01:57:03;;;;;;;0.93;0.93;;;20.20;23.20;;;;;;5117564;28;20188;-57
2021/03/17 01:59:31;;;;;;;1.70;1.37;;;20.20;23.30;;;;;;5116807;28;20673;-58
2021/03/17 02:01:58;;;;;;;1.40;1.30;;;20.20;23.30;;;;;;5117402;28;20381;-57
2021/03/17 02:04:23;;;;;;;2.13;1.20;;;20.10;23.20;;;;;;5117059;28;20189;-58
2021/03/17 02:06:51;;;;;;;1.00;0.87;;;20.10;23.20;;;;;;5117353;28;20240;-57
2021/03/17 02:09:17;;;;;;;1.13;1.02;;;20.20;23.30;;;;;;5117162;28;20149;-57
2021/03/17 02:11:54;;;;;;;2.20;1.52;;;20.20;23.30;;;;;;5117255;28;20165;-57
2021/03/17 02:15:03;;;;;;;1.05;0.88;;;20.20;23.30;;;;;;5116748;28;20194;-57
2021/03/17 02:17:30;;;;;;;1.40;1.00;;;20.20;23.20;;;;;;5117276;28;20153;-57
2021/03/17 02:20:22;;;;;;;2.55;1.50;;;20.20;23.20;;;;;;5116614;28;20168;-57
2021/03/17 02:23:01;;;;;;;1.20;1.10;;;20.20;23.20;;;;;;5116885;28;20224;-57
2021/03/17 02:25:48;;;;;;;1.38;1.10;;;20.20;23.20;;;;;;5116848;28;20177;-56
2021/03/17 02:28:43;;;;;;;1.58;1.15;;;20.10;23.20;;;;;;5116138;28;20191;-57
2021/03/17 02:31:39;;;;;;;2.00;1.30;;;20.10;23.20;;;;;;5074332;28;20191;-57
2021/03/17 02:34:08;;;;;;;1.30;1.10;;;20.10;23.20;;;;;;5116505;28;20165;-57
2021/03/17 02:36:41;;;;;;;1.33;1.05;;;20.20;23.30;;;;;;5116600;28;20192;-56
2021/03/17 02:39:23;;;;;;;1.25;1.10;;;20.20;23.20;;;;;;5116502;28;20152;-57
2021/03/17 02:42:09;;;;;;;1.17;1.05;;;20.20;23.20;;;;;;5116741;28;20164;-57
2021/03/17 02:44:49;;;;;;;1.45;1.25;;;20.20;23.10;;;;;;5116114;28;20654;-57
2021/03/17 02:47:18;;;;;;;1.38;1.10;;;20.20;23.10;;;;;;5116693;28;20660;-57
2021/03/17 02:49:48;;;;;;;1.65;1.15;;;20.20;23.10;;;;;;5116464;28;20545;-57
2021/03/17 02:52:14;;;;;;;0.93;0.80;;;20.20;23.20;;;;;;5116362;28;20157;-58
2021/03/17 02:54:43;;;;;;;1.33;1.10;;;20.20;23.20;;;;;;5116331;28;20181;-58
2021/03/17 02:57:19;;;;;;;1.73;1.10;;;20.20;23.30;;;;;;5116303;28;20157;-57
2021/03/17 02:59:50;;;;;;;1.40;1.30;;;20.20;23.20;;;;;;5115668;28;20164;-58
2021/03/17 03:02:17;;;;;;;1.30;1.00;;;20.20;23.20;;;;;;5116175;28;20322;-58
2021/03/17 03:04:46;;;;;;;1.15;1.05;;;20.10;23.20;;;;;;5115810;28;20220;-57
2021/03/17 03:07:14;;;;;;;1.80;1.08;;;20.20;23.20;;;;;;5097787;28;20256;-57
2021/03/17 03:09:41;;;;;;;1.75;1.00;;;20.20;23.20;;;;;;5115973;28;20592;-57
2021/03/17 03:12:08;;;;;;;1.30;1.20;;;20.20;23.10;;;;;;5115955;28;20198;-58
2021/03/17 03:14:34;;;;;;;2.55;1.50;;;20.20;23.10;;;;;;5115383;28;20154;-58
2021/03/17 03:17:03;;;;;;;1.35;1.25;;;20.20;23.10;;;;;;5115856;28;20240;-58
2021/03/17 03:19:34;;;;;;;1.00;0.90;;;20.20;23.10;;;;;;5115769;28;20243;-57
2021/03/17 03:22:01;;;;;;;1.25;1.05;;;20.20;23.20;;;;;;5115512;28;20257;-58
2021/03/17 03:24:30;;;;;;;1.45;1.10;;;20.10;23.20;;;;;;5115611;28;20183;-58
2021/03/17 03:26:58;;;;;;;1.33;1.20;;;20.10;23.10;;;;;;5115686;28;20185;-58
2021/03/17 03:29:25;;;;;;;1.33;0.90;;;20.10;23.10;;;;;;5115714;28;20560;-57
2021/03/17 03:31:54;;;;;;;1.35;1.00;;;20.20;23.20;;;;;;5115395;28;20192;-57
2021/03/17 03:34:23;;;;;;;1.48;1.27;;;20.20;23.10;;;;;;5115269;28;20172;-57
2021/03/17 03:36:52;;;;;;;1.25;1.15;;;20.20;23.10;;;;;;5115598;28;20172;-57
2021/03/17 03:39:18;;;;;;;1.60;0.95;;;20.20;23.10;;;;;;5115394;28;20153;-57
2021/03/17 03:41:44;;;;;;;1.60;1.07;;;20.20;23.10;;;;;;5114558;28;20169;-57
2021/03/17 03:44:09;;;;;;;1.30;1.00;;;20.20;23.10;;;;;;5096450;28;20177;-58
2021/03/17 03:46:36;;;;;;;1.30;1.10;;;20.20;23.10;;;;;;5097134;28;20190;-58
2021/03/17 03:49:04;;;;;;;1.10;1.00;;;20.20;23.10;;;;;;5114981;28;20165;-57
2021/03/17 03:51:31;;;;;;;1.77;1.23;;;20.20;23.20;;;;;;5115218;28;20592;-57
2021/03/17 03:54:08;;;;;;;1.33;1.20;;;20.10;23.10;;;;;;5114895;28;20158;-57
2021/03/17 03:56:47;;;;;;;1.50;1.25;;;20.10;23.10;;;;;;5115291;28;20235;-57
2021/03/17 03:59:28;;;;;;;1.50;1.13;;;20.20;23.70;;;;;;5114526;28;20157;-57
2021/03/17 04:01:56;;;;;;;0.90;0.90;;;20.20;23.10;;;;;;5114952;28;20596;-57
2021/03/17 04:04:30;;;;;;;1.10;0.85;;;20.20;23.10;;;;;;5114806;28;20185;-57
2021/03/17 04:07:00;;;;;;;0.95;0.85;;;20.20;23.00;;;;;;5114912;28;20213;-57
2021/03/17 04:09:31;;;;;;;2.35;1.27;;;20.20;23.00;;;;;;5114999;28;20160;-57
2021/03/17 04:12:02;;;;;;;1.13;0.90;;;20.20;23.00;;;;;;5114733;28;20145;-57
2021/03/17 04:14:30;;;;;;;1.13;0.90;;;20.20;23.10;;;;;;5114276;28;20149;-57
2021/03/17 04:17:04;;;;;;;1.00;0.90;;;20.10;23.10;;;;;;5114584;28;20161;-57
2021/03/17 04:19:33;;;;;;;1.15;0.90;;;20.10;23.10;;;;;;5114422;28;20173;-57
2021/03/17 04:22:01;;;;;;;1.25;0.82;;;20.10;23.10;;;;;;5114395;28;20217;-57
2021/03/17 04:24:31;;;;;;;1.20;1.05;;;20.10;23.20;;;;;;5114416;28;20267;-57
2021/03/17 04:27:00;;;;;;;1.02;0.90;;;20.10;23.10;;;;;;5114491;28;20145;-57
2021/03/17 04:29:26;;;;;;;1.52;1.02;;;20.20;23.10;;;;;;5113902;28;20623;-57
2021/03/17 04:31:53;;;;;;;1.00;0.77;;;20.20;23.10;;;;;;5114443;28;20153;-57
2021/03/17 04:34:29;;;;;;;0.90;0.73;;;20.20;23.10;;;;;;5114514;28;20157;-57
2021/03/17 04:36:58;;;;;;;1.05;0.88;;;20.20;23.00;;;;;;5114430;28;20205;-57
2021/03/17 04:39:24;;;;;;;1.13;1.00;;;20.20;23.20;;;;;;5114110;28;20161;-57
2021/03/17 04:41:54;;;;;;;1.20;0.98;;;20.10;23.10;;;;;;5114338;28;20627;-57
2021/03/17 04:44:20;;;;;;;1.10;1.00;;;20.10;23.10;;;;;;5113642;28;20184;-57
2021/03/17 04:46:55;;;;;;;1.38;0.90;;;20.10;23.20;;;;;;5114496;28;20203;-57
2021/03/17 04:49:25;;;;;;;1.10;1.00;;;20.10;23.10;;;;;;5113810;28;20148;-57
2021/03/17 04:51:52;;;;;;;1.48;1.02;;;20.10;23.10;;;;;;5113760;28;20150;-57
2021/03/17 04:54:18;;;;;;;2.50;1.00;;;20.20;23.10;;;;;;5114050;28;20612;-57
2021/03/17 04:56:47;;;;;;;2.07;1.30;;;20.20;23.00;;;;;;5114233;28;20171;-57
2021/03/17 04:59:18;;;;;;;0.75;0.60;;;20.20;23.00;;;;;;5113665;28;20538;-58
2021/03/17 05:01:44;;;;;;;1.23;1.13;;;20.20;23.00;;;;;;5114175;28;20161;-58
2021/03/17 05:04:13;;;;;;;0.95;0.85;;;20.20;23.00;;;;;;5113796;28;20157;-58
2021/03/17 05:06:43;;;;;;;1.55;0.93;;;20.20;23.10;;;;;;5113982;28;20233;-57
2021/03/17 05:09:10;;;;;;;1.55;1.45;;;20.20;23.10;;;;;;5113869;28;20157;-57
2021/03/17 05:11:38;;;;;;;1.10;0.90;;;20.10;23.10;;;;;;5095947;28;20172;-58
2021/03/17 05:14:13;;;;;;;1.52;1.00;;;20.10;23.10;;;;;;5113245;28;20176;-57
2021/03/17 05:16:39;;;;;;;0.88;0.80;;;20.10;23.10;;;;;;5113976;28;20152;-57
2021/03/17 05:19:06;;;;;;;0.77;0.70;;;20.10;23.10;;;;;;5113741;28;20181;-58
2021/03/17 05:21:33;;;;;;;1.20;1.10;;;20.10;23.10;;;;;;5113638;28;20209;-57
2021/03/17 05:23:59;;;;;;;1.70;0.98;;;20.20;23.00;;;;;;5113540;28;20184;-56
2021/03/17 05:26:26;;;;;;;0.93;0.83;;;20.20;23.00;;;;;;5113973;28;20616;-57
2021/03/17 05:28:53;;;;;;;1.25;1.15;;;20.20;23.00;;;;;;5113285;28;20419;-57
2021/03/17 05:31:25;;;;;;;1.20;0.80;;;20.20;23.00;;;;;;5095771;28;20153;-56
2021/03/17 05:33:53;;;;;;;1.10;0.90;;;20.20;23.00;;;;;;5113768;28;20149;-58
2021/03/17 05:36:19;;;;;;;0.70;0.70;;;20.10;23.00;;;;;;5113691;28;20179;-57
2021/03/17 05:38:44;;;;;;;0.90;0.80;;;20.10;23.10;;;;;;5095474;28;20252;-57
2021/03/17 05:41:12;;;;;;;1.47;1.07;;;20.10;23.10;;;;;;5095236;28;20161;-58
2021/03/17 05:43:38;;;;;;;1.00;0.82;;;20.10;23.10;;;;;;5113334;28;20164;-57
2021/03/17 05:46:07;;;;;;;1.10;0.80;;;20.10;23.10;;;;;;5113127;28;20189;-58
2021/03/17 05:48:33;;;;;;;1.00;0.90;;;20.10;23.10;;;;;;5113758;28;20153;-58
2021/03/17 05:51:02;;;;;;;0.82;0.75;;;20.20;23.00;;;;;;5113685;28;20511;-58
2021/03/17 05:53:28;;;;;;;1.10;1.00;;;20.20;23.00;;;;;;5113566;28;20153;-58
2021/03/17 05:55:59;;;;;;;1.10;1.00;;;20.20;23.00;;;;;;5113264;28;20199;-57
2021/03/17 05:58:25;;;;;;;1.55;1.23;;;20.20;23.00;;;;;;5113276;28;20228;-56
2021/03/17 06:00:51;;;;;;;0.90;0.80;;;20.20;23.00;;;;;;5112812;28;20272;-57
2021/03/17 06:03:18;;;;;;;0.83;0.83;;;20.20;23.00;;;;;;5113437;28;20161;-58
2021/03/17 06:05:45;;;;;;;1.23;0.95;;;20.10;23.00;;;;;;5117205;28;20193;-58
2021/03/17 06:08:18;;;;;;;2.45;1.02;;;20.10;23.10;;;;;;5116938;28;20165;-57
2021/03/17 06:10:48;;;;;;;1.40;1.27;;;20.10;23.10;;;;;;5132878;27;20176;-58
2021/03/17 06:13:15;;;;;;;1.00;0.90;;;20.10;23.10;;;;;;5116700;28;20184;-58
2021/03/17 06:15:55;;;;;;;1.10;0.90;;;20.10;23.10;;;;;;5116501;28;20157;-58
2021/03/17 06:18:36;;;;;;;1.20;0.90;;;20.20;23.00;;;;;;5116960;28;20194;-58
2021/03/17 06:21:03;;;;;;;0.80;0.77;;;20.20;23.00;;;;;;5116717;28;20157;-58
2021/03/17 06:23:29;;;;;;;0.95;0.85;;;20.20;23.00;;;;;;5116748;28;20255;-58
2021/03/17 06:25:57;;;;;;;1.33;1.23;;;20.20;23.00;;;;;;5116404;28;20224;-57
2021/03/17 06:28:23;;;;;;;0.90;0.80;;;20.20;23.00;;;;;;5116416;28;20181;-57
2021/03/17 06:30:48;;;;;;;1.10;0.93;;;20.10;23.10;;;;;;5116106;28;20157;-57
2021/03/17 06:33:14;;;;;;;1.30;1.00;;;20.10;23.10;;;;;;5116667;28;20505;-58
2021/03/17 06:35:40;;;;;;;1.40;1.10;;;20.10;23.10;;;;;;5116495;28;20173;-58
2021/03/17 06:38:05;;;;;;;2.20;1.13;;;20.10;23.50;;;;;;5116415;28;20164;-57
2021/03/17 06:40:34;;;;;;;0.80;0.77;;;20.10;23.10;;;;;;5116465;28;20685;-57
2021/03/17 06:43:06;;;;;;;1.10;1.00;;;20.10;23.10;;;;;;5116205;28;20181;-57
2021/03/17 06:45:44;;;;;;;1.20;0.80;;;20.10;23.00;;;;;;5115792;28;20177;-58
2021/03/17 06:48:24;;;;;;;1.17;1.08;;;20.20;23.10;;;;;;5116057;28;20265;-57
2021/03/17 06:51:06;;;;;;;1.25;0.90;;;20.20;23.00;;;;;;5116216;28;20165;-57
2021/03/17 06:53:47;;;;;;;1.15;0.98;;;20.20;23.00;;;;;;5115937;28;20647;-57
2021/03/17 06:56:19;;;;;;;1.52;1.10;;;20.20;23.00;;;;;;5116021;28;20404;-58
2021/03/17 06:59:02;;;;;;;1.48;1.10;;;20.10;23.00;;;;;;5115774;28;20153;-57
2021/03/17 07:01:40;;;;;;;1.05;0.95;;;20.10;23.10;;;;;;5115921;28;20655;-58
2021/03/17 07:04:16;;;;;;;1.08;0.98;;;20.10;23.10;;;;;;5115558;28;20206;-58
2021/03/17 07:06:48;;;;;;;6.15;0.80;;;20.10;23.10;;;;;;5115593;28;20617;-57
2021/03/17 07:09:24;;;;;;;0.70;0.70;;;20.20;23.10;;;;;;5115305;28;20254;-58
2021/03/17 07:12:08;;;;;;;1.25;1.05;;;20.20;23.10;;;;;;5115681;28;20170;-57
2021/03/17 07:14:38;;;;;;;1.02;0.90;;;20.20;23.10;;;;;;5114656;28;20160;-58
2021/03/17 07:17:21;;;;;;;1.02;0.88;;;20.20;23.00;;;;;;5115465;28;20165;-57
2021/03/17 07:19:47;;;;;;;5.72;5.22;;;;;;;;;;5108387;28;20173;-58
2021/03/17 07:22:22;;;;;;;7.90;7.30;;;17.70;17.80;;;;;;5078620;27;20548;-55
2021/03/17 07:24:53;;;;;;;8.05;6.25;;;17.20;18.30;;;;;;5113909;28;20429;-54
2021/03/17 07:27:22;;;;;;;3.53;2.83;;;15.10;21.50;;;;;;5118412;27;20169;-54
2021/03/17 07:30:01;;;;;;;3.13;2.35;;;14.50;25.70;;;;;;5134177;27;20149;-55
2021/03/17 07:32:50;;;;;;;3.70;2.58;;;15.10;28.20;;;;;;5133954;27;20175;-55
2021/03/17 07:35:29;;;;;;;3.85;1.90;;;15.70;28.50;;;;;;5134819;27;20206;-55
2021/03/17 07:38:05;;;;;;;5.07;2.67;;;16.50;27.80;;;;;;5134857;27;20206;-54
2021/03/17 07:40:33;;;;;;;1.70;1.60;;;17.00;26.90;;;;;;5134532;27;20614;-54
2021/03/17 07:43:00;;;;;;;2.40;2.00;;;17.50;26.40;;;;;;5116748;27;20176;-54
2021/03/17 07:45:28;;;;;;;1.98;1.60;;;18.50;26.80;;;;;;5104179;28;20189;-55
2021/03/17 07:47:54;;;;;;;2.30;1.50;;;18.10;25.80;;;;;;5097069;27;20184;-56
2021/03/17 07:50:22;;;;;;;1.13;0.98;;;18.30;25.60;;;;;;5104213;27;20222;-55
2021/03/17 07:52:50;;;;;;;3.95;1.25;;;18.60;25.40;;;;;;5107176;28;20184;-54
2021/03/17 07:55:16;;;;;;;1.80;1.40;;;18.70;25.20;;;;;;5101299;28;20211;-54
2021/03/17 07:57:43;;;;;;;2.58;1.55;;;18.90;25.10;;;;;;5096487;27;20188;-55
2021/03/17 08:00:09;;;;;;;1.23;1.10;;;19.00;24.90;;;;;;5101716;27;20180;-55
2021/03/17 08:02:36;;;;;;;1.40;1.30;;;19.10;24.80;;;;;;5107545;28;20177;-55
2021/03/17 08:05:03;;;;;;;3.97;1.45;;;19.20;24.70;;;;;;5103193;28;20649;-52
2021/03/17 08:07:29;;;;;;;2.78;1.13;;;19.30;24.50;;;;;;5105208;28;20177;-55
2021/03/17 08:09:55;;;;;;;4.20;1.30;;;19.40;24.50;;;;;;5108166;28;20188;-55
2021/03/17 08:12:22;;;;;;;1.90;1.20;;;19.50;24.40;;;;;;5122387;27;20401;-54
2021/03/17 08:14:50;;;;;;;2.88;1.42;;;19.50;24.20;;;;;;5109064;28;20193;-54
2021/03/17 08:17:33;;;;;;;2.50;1.17;;;19.60;23.90;;;;;;5077647;28;20906;-54
2021/03/17 08:20:29;;;;;;;1.92;1.15;;;19.60;23.90;;;;;;5097539;27;20918;-54
2021/03/17 08:22:57;;;;;;;1.83;1.30;;;19.70;24.00;;;;;;5106678;28;20240;-53
2021/03/17 08:25:45;;;;;;;2.13;1.10;;;19.70;24.00;;;;;;5101498;28;20227;-54
2021/03/17 08:28:25;;;;;;;2.88;1.30;;;19.70;24.00;;;;;;5102368;27;20248;-52
2021/03/17 08:30:53;;;;;;;2.00;1.30;;;19.80;24.10;;;;;;5098536;28;20180;-53
2021/03/17 08:33:38;;;;;;;2.13;1.52;;;19.90;24.10;;;;;;5103143;28;20164;-53
2021/03/17 08:36:12;;;;;;;2.97;1.35;;;21.10;24.90;;;;;;5115450;27;20177;-52
2021/03/17 08:38:48;;;;;;;5.05;1.50;;;19.90;24.10;;;;;;5105692;27;20188;-53
2021/03/17 08:41:15;;;;;;;4.07;1.50;;;20.00;24.20;;;;;;5106486;28;20165;-53
2021/03/17 08:43:43;;;;;;;3.40;1.50;;;20.00;24.20;;;;;;5110547;28;20173;-54
2021/03/17 08:46:19;;;;;;;3.10;1.58;;;20.00;24.20;;;;;;5083842;28;20664;-54
2021/03/17 08:48:59;;;;;;;4.07;1.45;;;20.00;24.20;;;;;;5098185;28;20184;-55
2021/03/17 08:51:46;;;;;;;2.00;1.23;;;20.00;24.20;;;;;;5107284;28;20673;-54
2021/03/17 08:54:31;;;;;;;2.13;1.40;;;20.10;24.30;;;;;;5082704;28;20201;-54
2021/03/17 08:57:08;;;;;;;3.33;1.45;;;20.20;23.70;;;;;;5105153;28;20173;-54
2021/03/17 08:59:56;;;;;;;2.20;1.50;;;20.20;24.10;;;;;;5115481;27;20169;-55
2021/03/17 09:02:30;;;;;;;1.65;1.30;;;20.20;24.00;;;;;;5104499;28;20162;-55
2021/03/17 09:04:58;;;;;;;2.55;1.40;;;20.20;23.90;;;;;;5101640;28;20208;-53
2021/03/17 09:07:32;;;;;;;3.58;1.42;;;20.30;24.10;;;;;;5095778;28;20181;-54
2021/03/17 09:10:08;;;;;;;2.13;1.20;;;20.30;23.90;;;;;;5106965;28;20269;-54
2021/03/17 09:12:36;;;;;;;2.58;1.38;;;20.40;23.70;;;;;;5099160;28;20249;-54
2021/03/17 09:15:13;;;;;;;2.35;1.40;;;20.40;23.60;;;;;;5103617;28;20187;-53
2021/03/17 09:17:49;;;;;;;3.92;2.00;;;20.50;23.60;;;;;;5104640;28;20178;-54
2021/03/17 09:20:21;;;;;;;1.95;1.55;;;20.50;23.60;;;;;;5103032;28;20173;-53
2021/03/17 09:22:48;;;;;;;1.75;1.20;;;20.50;23.80;;;;;;5107782;28;20750;-54
2021/03/17 09:25:14;;;;;;;1.58;1.48;;;20.60;23.70;;;;;;5112226;28;20586;-54
2021/03/17 09:27:47;;;;;;;2.87;1.50;;;20.60;23.60;;;;;;5118048;28;20620;-52
2021/03/17 09:30:15;;;;;;;1.35;1.25;;;20.70;23.40;;;;;;5098440;28;20164;-53
2021/03/17 09:32:40;;;;;;;2.35;1.30;;;20.70;23.30;;;;;;5108071;28;20173;-53
2021/03/17 09:35:08;;;;;;;2.23;1.50;;;20.70;24.00;;;;;;5100529;28;20242;-52
2021/03/17 09:37:34;;;;;;;4.32;1.80;;;20.80;23.30;;;;;;5101416;28;20181;-52
2021/03/17 09:39:59;;;;;;;2.13;1.40;;;20.80;23.20;;;;;;5105245;27;20644;-52
2021/03/17 09:42:25;;;;;;;2.13;1.83;;;20.80;23.20;;;;;;5107088;28;20230;-52
2021/03/17 09:44:58;;;;;;;2.80;1.10;;;20.80;23.30;;;;;;5109128;28;20648;-54
2021/03/17 09:47:31;;;;;;;1.95;1.30;;;20.80;23.30;;;;;;5092044;28;20222;-55
2021/03/17 09:49:57;;;;;;;2.15;1.30;;;20.80;23.40;;;;;;5108052;27;20225;-56
2021/03/17 09:52:24;;;;;;;1.77;1.50;;;20.70;23.70;;;;;;5104349;28;20181;-55
2021/03/17 09:54:53;;;;;;;1.45;1.35;;;20.80;24.50;;;;;;5084952;28;20203;-56
2021/03/17 09:57:18;;;;;;;2.67;1.50;;;20.70;28.20;;;;;;5104571;28;20260;-54
2021/03/17 09:59:46;;;;;;;1.67;1.20;;;20.70;31.90;;;;;;5111683;27;20268;-54
2021/03/17 10:02:25;;;;;;;2.45;1.23;;;20.70;28.50;;;;;;5109353;27;20506;-53
2021/03/17 10:04:52;;;;;;;4.72;1.33;;;;;;;;;;5094618;28;20724;-55
2021/03/17 10:07:22;;;;;;;1.45;1.25;;;20.80;23.10;;;;;;5101453;28;20185;-54
2021/03/17 10:09:52;;;;;;;2.58;1.80;;;20.80;23.50;;;;;;5108811;28;20179;-52
2021/03/17 10:12:21;;;;;;;2.20;1.40;;;20.90;24.10;;;;;;5110565;28;20191;-53
2021/03/17 10:14:52;;;;;;;2.17;1.58;;;20.90;23.40;;;;;;5106240;28;20634;-54
2021/03/17 10:17:19;;;;;;;2.50;1.52;;;20.90;23.20;;;;;;5128464;27;20223;-52
2021/03/17 10:19:54;;;;;;;3.03;1.92;;;21.00;23.10;;;;;;5114043;27;20312;-52
2021/03/17 10:22:21;;;;;;;3.40;2.00;;;21.00;22.90;;;;;;5114318;28;20258;-53
2021/03/17 10:24:50;;;;;;;1.38;1.17;;;21.00;23.00;;;;;;5109731;28;20292;-53
2021/03/17 10:27:32;;;;;;;1.65;1.17;;;21.00;23.00;;;;;;5107611;27;20644;-53
2021/03/17 10:30:09;;;;;;;2.05;1.10;;;21.00;23.10;;;;;;5102299;27;20166;-53
2021/03/17 10:32:39;;;;;;;1.60;1.30;;;21.00;23.10;;;;;;5109142;28;20201;-53
2021/03/17 10:35:14;;;;;;;1.55;1.23;;;21.00;23.10;;;;;;5102079;27;20252;-54
2021/03/17 10:37:41;;;;;;;3.75;1.33;;;21.00;23.10;;;;;;5096577;28;20172;-53
2021/03/17 10:40:23;;;;;;;2.95;1.77;;;21.00;23.10;;;;;;5100881;27;20184;-52
2021/03/17 10:42:52;;;;;;;1.95;1.00;;;21.00;23.10;;;;;;5111104;28;20647;-53
2021/03/17 10:45:23;;;;;;;1.55;1.35;;;21.00;23.10;;;;;;5097849;28;20216;-51
2021/03/17 10:47:50;;;;;;;1.95;1.63;;;21.10;23.20;;;;;;5102806;28;20179;-53
2021/03/17 10:50:34;;;;;;;3.60;1.50;;;21.10;23.40;;;;;;5094323;28;20185;-54
2021/03/17 10:53:00;;;;;;;1.40;1.30;;;21.10;23.30;;;;;;5109305;28;20243;-53
2021/03/17 10:55:29;;;;;;;1.98;1.45;;;21.10;23.20;;;;;;5110328;28;20202;-53
2021/03/17 10:58:09;;;;;;;1.88;1.55;;;21.10;23.20;;;;;;5109292;28;20173;-53
2021/03/17 11:00:35;;;;;;;1.73;1.48;;;21.20;23.10;;;;;;5109594;28;20214;-53
2021/03/17 11:03:20;;;;;;;1.50;1.20;;;21.20;22.90;;;;;;5108660;28;20634;-54
2021/03/17 11:05:48;;;;;;;2.97;1.55;;;21.20;22.90;;;;;;5099991;28;20284;-54
2021/03/17 11:08:14;;;;;;;1.85;1.17;;;21.20;22.90;;;;;;5110467;28;20177;-54
2021/03/17 11:10:57;;;;;;;2.50;1.67;;;21.20;23.00;;;;;;5112659;28;20523;-53
2021/03/17 11:13:26;;;;;;;1.45;1.30;;;21.20;23.00;;;;;;5101001;28;20179;-54
2021/03/17 11:15:52;;;;;;;1.40;1.25;;;21.20;23.00;;;;;;5100957;28;20567;-53
2021/03/17 11:18:43;;;;;;;2.10;1.70;;;21.20;23.00;;;;;;5106174;28;20612;-53
2021/03/17 11:21:34;;;;;;;2.10;1.60;;;21.20;23.10;;;;;;5108967;28;20275;-53
2021/03/17 11:24:02;;;;;;;3.08;1.35;;;21.20;23.10;;;;;;5100463;27;20615;-54
2021/03/17 11:26:35;;;;;;;2.22;1.30;;;21.10;23.00;;;;;;5102053;28;20222;-52
2021/03/17 11:29:10;;;;;;;1.40;1.30;;;21.10;23.00;;;;;;5097317;27;20652;-53
2021/03/17 11:31:35;;;;;;;1.55;1.33;;;21.10;23.00;;;;;;5104386;27;20184;-53
2021/03/17 11:34:02;;;;;;;1.53;1.00;;;21.10;23.00;;;;;;5096212;28;20180;-53
2021/03/17 11:36:29;;;;;;;2.58;1.30;;;21.10;23.10;;;;;;5106208;27;20230;-55
2021/03/17 11:38:57;;;;;;;3.58;1.38;;;21.10;23.10;;;;;;5109444;28;20192;-53
2021/03/17 11:41:27;;;;;;;1.48;1.35;;;21.10;23.20;;;;;;5107217;28;20320;-51
2021/03/17 11:43:54;;;;;;;2.72;1.50;;;21.10;23.20;;;;;;5110499;27;20184;-55
2021/03/17 11:46:19;;;;;;;1.58;1.13;;;21.10;23.20;;;;;;5101118;27;20203;-53
2021/03/17 11:48:46;;;;;;;3.67;1.43;;;21.00;23.20;;;;;;5102647;28;20185;-54
2021/03/17 11:51:13;;;;;;;2.53;1.35;;;21.00;23.20;;;;;;5101408;28;20648;-53
2021/03/17 11:53:39;;;;;;;3.75;1.73;;;21.00;23.20;;;;;;5104348;28;20181;-54
2021/03/17 11:56:10;;;;;;;3.37;1.63;;;21.00;23.20;;;;;;5104161;28;20181;-54
2021/03/17 11:58:37;;;;;;;2.28;1.67;;;21.00;23.20;;;;;;5083738;28;20189;-53
2021/03/17 12:01:05;;;;;;;1.55;1.40;;;21.00;23.30;;;;;;5111423;28;20615;-53
2021/03/17 12:03:31;;;;;;;2.25;1.52;;;21.00;23.40;;;;;;5111670;28;20188;-54
2021/03/17 12:05:57;;;;;;;1.77;1.20;;;21.00;23.40;;;;;;5112556;28;20193;-53
2021/03/17 12:08:23;;;;;;;2.30;1.42;;;21.00;23.50;;;;;;5114809;27;20200;-54
2021/03/17 12:10:53;;;;;;;4.10;1.80;;;21.00;23.40;;;;;;5113509;28;20634;-52
2021/03/17 12:13:19;;;;;;;1.40;1.25;;;20.90;23.30;;;;;;5091519;28;20405;-53
2021/03/17 12:15:45;;;;;;;1.92;1.30;;;20.90;23.40;;;;;;5093289;28;20177;-54
2021/03/17 12:18:12;;;;;;;1.95;1.35;;;20.90;23.30;;;;;;5109214;28;20210;-53
2021/03/17 12:20:37;;;;;;;1.90;1.40;;;20.90;23.30;;;;;;5110231;28;20524;-52
2021/03/17 12:23:04;;;;;;;1.53;1.10;;;20.90;23.50;;;;;;5101352;28;20695;-53
2021/03/17 12:25:30;;;;;;;4.30;1.85;;;20.90;23.60;;;;;;5112182;28;20219;-53
2021/03/17 12:27:56;;;;;;;3.57;1.70;;;20.90;23.60;;;;;;5111415;28;20675;-54
2021/03/17 12:30:22;;;;;;;1.97;1.20;;;20.90;23.70;;;;;;5110958;28;20184;-53
2021/03/17 12:32:49;;;;;;;1.88;1.25;;;20.90;23.70;;;;;;5113402;28;20755;-54
2021/03/17 12:35:16;;;;;;;2.83;1.40;;;20.90;23.70;;;;;;5112600;28;20577;-54
2021/03/17 12:37:43;;;;;;;3.15;1.75;;;20.90;23.70;;;;;;5113220;28;20161;-54
2021/03/17 12:40:13;;;;;;;1.27;1.17;;;20.80;23.70;;;;;;5111108;28;20173;-53
2021/03/17 12:42:39;;;;;;;1.58;1.27;;;20.90;23.70;;;;;;5112728;28;20561;-54
2021/03/17 12:45:08;;;;;;;1.42;1.23;;;20.80;23.70;;;;;;5093622;28;20263;-54
2021/03/17 12:47:36;;;;;;;3.22;1.30;;;20.80;23.80;;;;;;5111150;28;20172;-54
2021/03/17 12:50:05;;;;;;;1.75;1.40;;;20.80;23.90;;;;;;5112446;28;20161;-53
2021/03/17 12:52:31;;;;;;;1.58;1.17;;;20.80;23.90;;;;;;5111006;28;20236;-54
2021/03/17 12:54:57;;;;;;;3.37;1.40;;;20.80;23.90;;;;;;5111867;28;20576;-54
2021/03/17 12:57:25;;;;;;;2.73;1.23;;;20.80;24.00;;;;;;5112316;28;20624;-53
2021/03/17 12:59:50;;;;;;;2.38;1.10;;;20.80;23.90;;;;;;5111973;28;20212;-54
2021/03/17 13:02:16;;;;;;;1.67;1.20;;;20.80;24.00;;;;;;5092170;28;20887;-55
2021/03/17 13:04:42;;;;;;;3.50;1.33;;;20.70;23.90;;;;;;5111924;28;20250;-54